Time;durP1;ratioP1;P1;durP2;ratioP2;P2;SDS_P1;SDS_P2;PMS_P1;PMS_P2;Temp;Humidity;BMP_temperature;BMP_pressure;BME280_temperature;BME280_humidity;BME280_pressure;Samples;Min_cycle;Max_cycle;Signal;HPM_P1;HPM_P2
2022/08/19 00:04:41;;;;;;;10.77;8.82;;;;;;;19.77;68.81;97272.59;10254098;28;20113;-56
2022/08/19 00:09:40;;;;;;;15.55;10.40;;;;;;;19.73;69.25;97285.97;10254816;28;20030;-56
2022/08/19 00:14:40;;;;;;;15.68;10.98;;;;;;;19.61;69.52;97297.91;10254269;28;20030;-56
2022/08/19 00:19:40;;;;;;;13.52;10.30;;;;;;;19.30;69.89;97280.81;10253782;28;20467;-56
2022/08/19 00:24:40;;;;;;;14.15;9.98;;;;;;;19.18;70.57;97291.84;10254265;28;20460;-56
2022/08/19 00:29:39;;;;;;;14.45;9.75;;;;;;;18.92;70.83;97304.31;10282433;28;20058;-56
2022/08/19 00:34:39;;;;;;;13.02;10.27;;;;;;;18.80;71.18;97302.22;10292793;28;20049;-56
2022/08/19 00:39:38;;;;;;;11.35;9.57;;;;;;;18.76;71.22;97295.38;10293616;28;20564;-56
2022/08/19 00:44:37;;;;;;;13.27;10.52;;;;;;;18.73;71.63;97290.25;10279462;28;20563;-56
2022/08/19 00:49:50;;;;;;;16.95;10.15;;;;;;;18.69;72.41;97286.03;10253067;28;20070;-56
2022/08/19 00:54:52;;;;;;;13.70;9.77;;;;;;;18.57;73.32;97292.59;10252768;28;20074;-56
2022/08/19 00:59:54;;;;;;;15.35;10.32;;;;;;;18.49;73.25;97279.78;10252868;28;20074;-56
2022/08/19 01:04:53;;;;;;;11.65;10.10;;;;;;;18.50;73.06;97286.75;10252267;28;20539;-56
2022/08/19 01:09:52;;;;;;;14.30;10.98;;;;;;;18.44;73.04;97278.28;10251752;28;20054;-55
2022/08/19 01:14:52;;;;;;;14.10;10.20;;;;;;;18.48;73.20;97288.59;10252655;28;20483;-56
2022/08/19 01:19:51;;;;;;;14.05;10.55;;;;;;;18.48;73.23;97290.34;10252270;28;20121;-56
2022/08/19 01:24:51;;;;;;;13.55;10.10;;;;;;;18.48;73.35;97285.09;10251319;28;20069;-56
2022/08/19 01:29:50;;;;;;;12.23;9.77;;;;;;;18.46;73.91;97285.16;10281358;28;20061;-56
2022/08/19 01:34:49;;;;;;;13.63;10.57;;;;;;;18.43;74.28;97287.91;10291147;28;20053;-56
2022/08/19 01:39:48;;;;;;;;;;;;;;;18.39;74.53;97288.97;10291612;28;20034;-56
2022/08/19 01:44:47;;;;;;;13.50;9.40;;;;;;;18.35;74.70;97279.47;10276268;28;19913;-56
2022/08/19 01:49:46;;;;;;;12.63;11.10;;;;;;;18.31;74.79;97277.88;10250813;28;20034;-55
2022/08/19 01:54:45;;;;;;;13.60;10.52;;;;;;;18.29;74.69;97279.72;10250269;28;20100;-55
2022/08/19 01:59:45;;;;;;;14.40;10.77;;;;;;;18.32;74.65;97285.72;10250142;28;20042;-56
2022/08/19 02:04:45;;;;;;;14.63;11.57;;;;;;;18.28;75.16;97288.53;10249747;28;20493;-55
2022/08/19 02:09:44;;;;;;;12.13;10.38;;;;;;;18.11;76.33;97283.94;10249472;28;20065;-56
2022/08/19 02:14:43;;;;;;;20.08;11.65;;;;;;;18.13;76.10;97290.84;10248977;28;20037;-56
2022/08/19 02:19:42;;;;;;;;;;;;;;;18.06;76.53;97294.63;10249886;28;20058;-56
2022/08/19 02:24:41;;;;;;;14.50;10.93;;;;;;;17.91;77.25;97290.78;10249799;28;19953;-56
2022/08/19 02:29:40;;;;;;;17.55;12.98;;;;;;;17.85;77.27;97300.69;10277448;28;20026;-56
2022/08/19 02:34:40;;;;;;;15.43;11.38;;;;;;;17.70;77.64;97297.66;10288656;28;20085;-56
2022/08/19 02:39:39;;;;;;;17.35;11.52;;;;;;;17.75;77.63;97303.63;10288793;28;20065;-56
2022/08/19 02:44:38;;;;;;;20.77;12.20;;;;;;;17.75;77.75;97310.59;10276383;28;20034;-56
2022/08/19 02:49:37;;;;;;;17.80;12.70;;;;;;;17.53;78.59;97314.03;10249378;28;20070;-57
2022/08/19 02:54:37;;;;;;;21.95;14.80;;;;;;;17.45;78.63;97316.09;10248261;28;20370;-56
2022/08/19 02:59:36;;;;;;;21.95;14.90;;;;;;;17.36;78.48;97326.91;10248494;28;20153;-56
2022/08/19 03:04:35;;;;;;;16.70;14.00;;;;;;;17.26;78.93;97318.50;10247320;28;20130;-58
2022/08/19 03:09:36;;;;;;;;;;;;;;;17.19;79.40;97334.47;10248544;28;20443;-56
2022/08/19 03:14:35;;;;;;;17.88;14.82;;;;;;;17.02;80.30;97329.81;10247677;28;20392;-55
2022/08/19 03:19:35;;;;;;;17.67;14.77;;;;;;;16.92;80.43;97340.59;10250595;28;20492;-57
2022/08/19 03:24:34;;;;;;;17.77;14.07;;;;;;;16.91;80.29;97341.53;10256308;28;20080;-55
2022/08/19 03:29:36;;;;;;;;;;;;;;;16.93;80.39;97339.72;10284508;28;20041;-55
2022/08/19 03:34:37;;;;;;;22.08;14.05;;;;;;;16.96;80.36;97341.38;10295557;28;19964;-55
2022/08/19 03:39:40;;;;;;;17.20;14.27;;;;;;;16.97;80.63;97343.06;10295579;28;20053;-55
2022/08/19 03:44:39;;;;;;;20.08;15.13;;;;;;;16.99;80.67;97346.50;10285023;28;20089;-55
2022/08/19 03:49:37;;;;;;;;;;;;;;;17.03;80.68;97342.88;10256699;28;20073;-56
2022/08/19 03:54:38;;;;;;;16.23;14.10;;;;;;;17.07;80.82;97348.84;10254054;28;19928;-56
2022/08/19 03:59:38;;;;;;;17.67;13.43;;;;;;;17.14;80.68;97350.34;10255255;28;20078;-55
2022/08/19 04:04:42;;;;;;;16.10;13.18;;;;;;;17.24;80.63;97351.78;10253830;28;20479;-56
2022/08/19 04:09:42;;;;;;;19.92;14.70;;;;;;;17.30;81.01;97358.56;10254098;28;20511;-55
2022/08/19 04:14:41;;;;;;;20.73;14.48;;;;;;;17.30;81.27;97356.78;10253327;28;20081;-55
2022/08/19 04:19:40;;;;;;;23.23;14.68;;;;;;;17.19;81.65;97364.19;10253666;28;20527;-56
2022/08/19 04:24:39;;;;;;;21.20;14.90;;;;;;;17.09;82.02;97361.00;10252730;28;20082;-55
2022/08/19 04:29:40;;;;;;;20.17;15.63;;;;;;;16.98;82.17;97362.25;10281137;28;20026;-56
2022/08/19 04:34:39;;;;;;;20.00;16.15;;;;;;;16.98;82.42;97375.38;10290658;28;20496;-55
2022/08/19 04:44:56;;;;;;;24.05;18.92;;;;;;;17.16;81.77;97369.53;10282434;28;20077;-56
2022/08/19 04:49:55;;;;;;;22.02;18.70;;;;;;;17.30;81.22;97356.78;10280529;28;20073;-55
2022/08/19 04:54:55;;;;;;;25.15;21.05;;;;;;;17.59;80.59;97369.81;10292401;28;20072;-55
2022/08/19 04:59:55;;;;;;;24.55;21.80;;;;;;;17.74;80.14;97369.28;10291949;28;20073;-56
2022/08/19 05:05:01;;;;;;;27.73;21.42;;;;;;;17.85;79.81;97363.69;10292775;28;20065;-55
2022/08/19 05:10:00;;;;;;;28.33;22.25;;;;;;;18.07;79.31;97358.47;10295658;28;20058;-55
2022/08/19 05:15:00;;;;;;;22.48;18.15;;;;;;;18.32;78.82;97376.81;10290230;28;20057;-55
2022/08/19 05:25:19;;;;;;;21.42;17.33;;;;;;;18.79;76.85;97374.13;10290389;28;20061;-55
2022/08/19 05:30:19;;;;;;;28.52;16.17;;;;;;;19.07;76.53;97380.88;10288826;28;20472;-56
2022/08/19 05:35:18;;;;;;;18.48;14.88;;;;;;;19.37;75.60;97374.34;10287207;28;20129;-55
2022/08/19 05:40:17;;;;;;;18.70;12.43;;;;;;;19.60;74.44;97381.28;10286935;28;20062;-56
2022/08/19 05:45:16;;;;;;;17.05;12.25;;;;;;;19.87;73.47;97371.31;10271595;28;20116;-55
2022/08/19 05:50:17;;;;;;;14.43;11.18;;;;;;;20.21;72.75;97368.91;10252470;28;20026;-55
2022/08/19 05:55:16;;;;;;;15.50;11.10;;;;;;;20.46;71.38;97369.53;10285209;28;20920;-57
2022/08/19 06:00:15;;;;;;;13.93;10.38;;;;;;;20.71;70.76;97368.38;10276670;28;20109;-57
2022/08/19 06:05:14;;;;;;;15.15;10.57;;;;;;;20.90;69.25;97376.25;10267963;28;20084;-57
2022/08/19 06:10:14;;;;;;;11.68;9.50;;;;;;;21.14;67.34;97363.63;10287027;28;20084;-57
2022/08/19 06:15:14;;;;;;;15.02;10.23;;;;;;;21.44;66.98;97368.31;10286678;28;20472;-57
2022/08/19 06:20:14;;;;;;;14.15;12.10;;;;;;;21.69;64.01;97367.94;10286748;28;20084;-56
2022/08/19 06:25:15;;;;;;;12.57;10.30;;;;;;;21.86;63.01;97370.53;10286739;28;20077;-54
2022/08/19 06:30:15;;;;;;;11.20;9.18;;;;;;;22.14;61.87;97369.94;10286498;28;20057;-55
2022/08/19 06:35:14;;;;;;;14.07;10.10;;;;;;;22.46;61.32;97369.09;10287162;28;20077;-56
2022/08/19 06:40:13;;;;;;;13.50;9.70;;;;;;;22.65;58.35;97372.47;10282125;28;20069;-55
2022/08/19 06:45:12;;;;;;;11.90;9.95;;;;;;;22.78;57.74;97344.38;10265901;28;20046;-56
2022/08/19 06:50:12;;;;;;;10.45;8.43;;;;;;;23.23;55.97;97376.22;10285618;28;20491;-56
2022/08/19 06:55:11;;;;;;;12.15;9.38;;;;;;;23.41;56.08;97369.84;10274033;28;20200;-56
2022/08/19 07:00:12;;;;;;;14.77;9.50;;;;;;;23.70;55.48;97375.28;10282240;28;20035;-56
2022/08/19 07:05:11;;;;;;;10.73;8.35;;;;;;;23.94;54.37;97377.38;10287054;28;20133;-56
2022/08/19 07:10:11;;;;;;;12.30;8.40;;;;;;;24.17;52.97;97379.47;10293996;28;20038;-56
2022/08/19 07:15:11;;;;;;;9.82;7.82;;;;;;;24.36;52.32;97373.03;10281455;28;20065;-56
2022/08/19 07:20:10;;;;;;;13.00;7.82;;;;;;;24.56;50.68;97364.66;10240519;28;20073;-56
2022/08/19 07:25:10;;;;;;;10.30;7.50;;;;;;;24.89;50.33;97360.78;10268855;28;20065;-56
2022/08/19 07:30:11;;;;;;;10.23;7.13;;;;;;;25.15;49.62;97356.41;10276425;28;20081;-56
2022/08/19 07:35:10;;;;;;;11.10;7.78;;;;;;;25.41;47.49;97354.69;10280734;28;20572;-56
2022/08/19 07:40:10;;;;;;;11.52;7.85;;;;;;;25.73;47.26;97357.81;10286398;28;20076;-56
2022/08/19 07:45:09;;;;;;;11.75;7.40;;;;;;;26.03;46.59;97361.13;10282820;28;20124;-56
2022/08/19 07:50:11;;;;;;;8.43;6.75;;;;;;;26.31;45.68;97358.25;10277260;28;20073;-56
2022/08/19 07:55:10;;;;;;;12.88;6.85;;;;;;;26.60;44.61;97354.44;10279646;28;20053;-57
2022/08/19 08:00:09;;;;;;;7.93;6.43;;;;;;;26.84;43.73;97355.38;10269777;28;20089;-56
2022/08/19 08:10:27;;;;;;;;;;;;;;;27.62;42.62;97348.66;10256472;28;20066;-56
2022/08/19 08:15:26;;;;;;;;;;;;;;;28.01;40.99;97349.22;10293614;28;19913;-56
2022/08/19 08:20:24;;;;;;;8.35;6.00;;;;;;;28.39;39.74;97340.84;10292526;28;19924;-56
2022/08/19 08:25:24;;;;;;;9.70;5.85;;;;;;;28.65;38.07;97338.75;10292629;28;20510;-56
2022/08/19 08:30:24;;;;;;;6.78;5.53;;;;;;;28.92;36.70;97340.16;10293149;28;20098;-56
2022/08/19 08:35:24;;;;;;;7.53;5.70;;;;;;;29.13;36.61;97326.81;10279177;28;20532;-57
2022/08/19 08:40:29;;;;;;;8.40;5.65;;;;;;;29.37;36.69;97325.78;10312369;28;20145;-56
2022/08/19 08:45:29;;;;;;;6.97;5.63;;;;;;;29.61;35.98;97328.22;10309267;28;20066;-56
2022/08/19 08:50:36;;;;;;;7.10;5.63;;;;;;;29.90;35.82;97326.56;10279654;28;20471;-56
2022/08/19 08:55:35;;;;;;;8.68;5.63;;;;;;;30.07;33.93;97317.09;10291270;28;20521;-56
2022/08/19 09:00:38;;;;;;;10.65;5.60;;;;;;;30.22;33.47;97306.00;10287415;28;20109;-56
2022/08/19 09:05:40;;;;;;;6.65;5.20;;;;;;;30.33;33.86;97306.75;10286621;28;20498;-56
2022/08/19 09:10:49;;;;;;;7.20;5.70;;;;;;;30.39;32.96;97308.03;10285971;28;20053;-56
2022/08/19 09:15:58;;;;;;;7.07;5.63;;;;;;;30.50;33.50;97305.28;10288212;28;20066;-56
2022/08/19 09:20:56;;;;;;;9.68;5.75;;;;;;;30.71;33.80;97294.44;10291576;28;20088;-56
2022/08/19 09:25:55;;;;;;;6.47;5.78;;;;;;;30.81;32.45;97290.94;10289679;28;20037;-56
2022/08/19 09:30:54;;;;;;;7.82;5.70;;;;;;;30.87;32.22;97288.56;10287980;28;20022;-56
2022/08/19 09:36:13;;;;;;;9.45;5.47;;;;;;;31.00;31.57;97284.78;10289603;28;20128;-56
2022/08/19 09:41:15;;;;;;;8.07;5.43;;;;;;;31.20;30.44;97280.25;10289491;28;20107;-56
2022/08/19 09:46:17;;;;;;;6.50;5.68;;;;;;;31.39;29.99;97275.69;10276497;28;20057;-56
2022/08/19 09:51:22;;;;;;;8.18;5.57;;;;;;;31.55;30.36;97283.19;10267509;28;20153;-57
2022/08/19 09:56:22;;;;;;;6.90;4.57;;;;;;;31.55;28.70;97263.56;10292691;28;20834;-57
2022/08/19 10:01:23;;;;;;;5.90;4.32;;;;;;;31.61;26.91;97267.50;10292662;28;20058;-57
2022/08/19 10:06:25;;;;;;;5.45;4.15;;;;;;;31.82;27.40;97262.75;10285123;28;20068;-57
2022/08/19 10:11:24;;;;;;;7.15;4.80;;;;;;;31.82;27.23;97254.72;10266026;28;20458;-57
2022/08/19 10:16:25;;;;;;;6.53;4.53;;;;;;;31.91;28.17;97250.31;10287476;28;20077;-55
2022/08/19 10:21:30;;;;;;;5.45;4.53;;;;;;;32.19;27.30;97237.75;10290061;28;20073;-55
2022/08/19 10:26:37;;;;;;;7.85;4.75;;;;;;;32.46;27.77;97230.66;10288833;28;20080;-57
2022/08/19 10:31:36;;;;;;;10.40;5.45;;;;;;;32.59;27.77;97226.63;10289752;28;20500;-55
2022/08/19 10:36:36;;;;;;;7.03;4.60;;;;;;;32.75;27.50;97220.59;10291573;28;20073;-54
2022/08/19 10:41:38;;;;;;;7.55;5.40;;;;;;;32.81;27.46;97221.78;10290492;28;20069;-55
2022/08/19 10:46:44;;;;;;;9.27;5.30;;;;;;;32.88;27.38;97217.53;10291497;28;20062;-55
2022/08/19 10:57:01;;;;;;;6.70;5.00;;;;;;;32.91;26.69;97219.88;10292402;28;20065;-55
2022/08/19 11:02:03;;;;;;;7.60;4.75;;;;;;;33.24;26.90;97218.31;10291742;28;20069;-55
2022/08/19 11:07:04;;;;;;;8.20;5.22;;;;;;;33.20;26.51;97211.56;10291200;28;20499;-55
2022/08/19 11:12:03;;;;;;;7.07;5.32;;;;;;;33.26;26.13;97199.34;10290094;28;20969;-55
2022/08/19 11:17:04;;;;;;;7.47;5.47;;;;;;;32.97;26.42;97194.22;10287151;28;20498;-55
2022/08/19 11:22:03;;;;;;;6.85;5.20;;;;;;;33.01;26.30;97204.50;10286697;28;20074;-55
2022/08/19 11:27:06;;;;;;;7.40;5.53;;;;;;;33.22;26.37;97204.19;10287993;28;20099;-55
2022/08/19 11:32:08;;;;;;;6.55;4.70;;;;;;;33.26;25.85;97200.19;10286762;28;20065;-55
2022/08/19 11:37:08;;;;;;;9.02;5.35;;;;;;;33.53;25.69;97192.94;10285260;28;20077;-55
2022/08/19 11:47:26;;;;;;;8.80;5.72;;;;;;;33.49;25.46;97180.84;10293425;28;20065;-56
2022/08/19 11:52:25;;;;;;;8.30;5.10;;;;;;;33.47;25.27;97172.91;10296280;28;20065;-55
2022/08/19 11:57:24;;;;;;;8.07;5.28;;;;;;;33.55;24.89;97169.41;10295191;28;20072;-55
2022/08/19 12:02:23;;;;;;;8.57;5.82;;;;;;;33.74;24.39;97168.34;10295290;28;20042;-55
2022/08/19 12:07:22;;;;;;;9.15;5.78;;;;;;;33.76;24.43;97160.13;10294810;28;20061;-55
2022/08/19 12:12:21;;;;;;;7.25;5.32;;;;;;;33.91;24.39;97152.25;10294873;28;20026;-55
2022/08/19 12:17:21;;;;;;;10.38;6.03;;;;;;;34.24;25.54;97153.25;10294837;28;20069;-55
2022/08/19 12:22:21;;;;;;;6.47;5.78;;;;;;;34.24;23.84;97146.00;10294598;28;20077;-55
2022/08/19 12:27:20;;;;;;;6.38;5.32;;;;;;;34.25;23.64;97136.06;10294738;28;20543;-55
2022/08/19 12:32:19;;;;;;;7.00;5.43;;;;;;;34.13;24.28;97138.25;10294392;28;20072;-57
2022/08/19 12:37:18;;;;;;;11.02;5.88;;;;;;;34.14;23.80;97128.31;10293789;28;20046;-56
2022/08/19 12:42:17;;;;;;;6.55;5.47;;;;;;;34.30;24.05;97122.94;10294344;28;20132;-56
2022/08/19 12:47:16;;;;;;;8.52;5.65;;;;;;;34.32;24.68;97123.63;10292918;28;20061;-56
2022/08/19 12:52:16;;;;;;;7.72;5.80;;;;;;;34.46;25.37;97119.44;10292637;28;20065;-56
2022/08/19 12:57:15;;;;;;;7.47;5.20;;;;;;;34.58;24.19;97122.63;10293182;28;20077;-56
2022/08/19 13:02:14;;;;;;;11.18;5.80;;;;;;;34.39;24.32;97119.25;10293532;28;20081;-56
2022/08/19 13:07:13;;;;;;;6.20;5.30;;;;;;;34.41;24.76;97117.22;10292628;28;20033;-56
2022/08/19 13:12:12;;;;;;;9.68;5.07;;;;;;;34.34;24.43;97126.16;10292220;28;20032;-56
2022/08/19 13:17:13;;;;;;;8.45;5.28;;;;;;;34.47;24.51;97115.72;10287353;28;20066;-56
2022/08/19 13:22:12;;;;;;;7.22;5.32;;;;;;;34.64;24.52;97111.22;10280804;28;20585;-56
2022/08/19 13:27:11;;;;;;;7.97;5.20;;;;;;;34.78;24.08;97106.97;10275542;28;20459;-56
2022/08/19 13:37:43;;;;;;;7.65;5.68;;;;;;;35.16;24.75;97105.44;10286056;28;20508;-57
2022/08/19 13:42:43;;;;;;;8.02;5.20;;;;;;;35.18;23.96;97102.56;10290449;28;20081;-57
2022/08/19 13:47:44;;;;;;;6.22;4.78;;;;;;;35.18;23.87;97095.31;10291118;28;20072;-56
2022/08/19 13:52:43;;;;;;;7.88;5.65;;;;;;;35.22;24.26;97087.69;10290767;28;20065;-56
2022/08/19 13:57:42;;;;;;;7.85;5.45;;;;;;;34.84;24.34;97099.03;10289665;28;20072;-56
2022/08/19 14:02:42;;;;;;;7.72;5.43;;;;;;;34.72;24.06;97103.13;10281254;28;20069;-56
2022/08/19 14:07:42;;;;;;;8.05;5.55;;;;;;;34.86;24.50;97080.84;10286700;28;20065;-56
2022/08/19 14:12:41;;;;;;;7.43;5.03;;;;;;;34.88;24.16;97080.69;10287489;28;20053;-55
2022/08/19 14:17:42;;;;;;;7.10;5.47;;;;;;;34.66;24.69;97088.47;10289885;28;20308;-56
2022/08/19 14:22:43;;;;;;;7.75;5.47;;;;;;;34.70;24.63;97086.25;10288941;28;20080;-56
2022/08/19 14:27:42;;;;;;;6.20;5.10;;;;;;;34.59;23.32;97086.56;10289762;28;20068;-56
2022/08/19 14:32:42;;;;;;;8.50;5.38;;;;;;;34.56;24.35;97071.59;10286202;28;20467;-56
2022/08/19 14:37:43;;;;;;;8.48;5.68;;;;;;;34.51;24.81;97080.19;10289266;28;20081;-56
2022/08/19 14:42:43;;;;;;;10.95;5.70;;;;;;;34.47;24.69;97073.47;10288443;28;20100;-57
2022/08/19 14:47:42;;;;;;;8.90;5.97;;;;;;;34.51;24.81;97072.09;10288201;28;20057;-57
2022/08/19 14:52:40;;;;;;;7.00;5.75;;;;;;;34.58;25.13;97061.50;10289495;28;20037;-57
2022/08/19 14:57:44;;;;;;;8.55;5.55;;;;;;;34.51;24.35;97060.47;10287977;28;20054;-56
2022/08/19 15:02:46;;;;;;;9.32;5.68;;;;;;;34.50;24.50;97056.13;10285191;28;20476;-56
2022/08/19 15:07:45;;;;;;;7.72;5.50;;;;;;;34.42;24.64;97056.94;10288451;28;20507;-56
2022/08/19 15:12:44;;;;;;;7.25;5.72;;;;;;;34.22;24.94;97052.94;10288031;28;20357;-55
2022/08/19 15:17:44;;;;;;;7.35;5.68;;;;;;;34.07;25.56;97060.78;10294976;28;20080;-55
2022/08/19 15:22:43;;;;;;;8.48;5.45;;;;;;;33.87;25.28;97055.69;10289754;28;20124;-55
2022/08/19 15:27:43;;;;;;;9.65;6.32;;;;;;;33.99;25.24;97045.47;10292741;28;20054;-56
2022/08/19 15:32:41;;;;;;;7.65;5.70;;;;;;;33.94;25.21;97047.81;10288069;28;20139;-55
2022/08/19 15:37:40;;;;;;;10.13;5.93;;;;;;;33.83;25.51;97042.75;10293845;28;20133;-55
2022/08/19 15:42:42;;;;;;;8.20;5.82;;;;;;;33.66;25.52;97042.69;10294096;28;20084;-56
2022/08/19 15:47:41;;;;;;;7.13;5.60;;;;;;;33.52;25.30;97039.78;10276257;28;20082;-55
2022/08/19 15:52:50;;;;;;;7.78;5.15;;;;;;;33.51;25.39;97038.09;10254467;28;20069;-55
2022/08/19 16:08:30;;;;;;;7.65;5.70;;;;;;;33.48;25.27;97033.88;10254071;28;20074;-55
2022/08/19 16:13:29;;;;;;;7.88;6.20;;;;;;;33.40;26.07;97036.56;10251427;28;20061;-56
2022/08/19 16:18:29;;;;;;;13.27;6.30;;;;;;;33.14;26.89;97040.16;10276246;28;20080;-56
2022/08/19 16:23:28;;;;;;;8.68;5.97;;;;;;;32.91;27.70;97044.34;10291520;28;20561;-56
2022/08/19 16:28:27;;;;;;;8.73;6.88;;;;;;;32.69;28.25;97035.81;10289779;28;20125;-56
2022/08/19 16:33:26;;;;;;;8.23;6.38;;;;;;;32.45;28.57;97051.72;10293195;28;20038;-57
2022/08/19 16:38:26;;;;;;;10.05;6.10;;;;;;;32.28;29.03;97051.59;10292954;28;20067;-56
2022/08/19 16:43:27;;;;;;;10.73;6.10;;;;;;;32.13;28.86;97048.63;10292795;28;20088;-56
2022/08/19 16:48:28;;;;;;;9.35;6.30;;;;;;;32.00;29.42;97057.03;10266792;28;20058;-56
2022/08/19 16:53:27;;;;;;;8.90;6.28;;;;;;;31.71;29.69;97061.75;10251157;28;20085;-57
2022/08/19 16:58:29;;;;;;;12.80;6.93;;;;;;;31.56;29.89;97069.47;10251182;28;20093;-55
2022/08/19 17:03:29;;;;;;;10.63;7.28;;;;;;;31.38;30.33;97072.06;10292078;28;20073;-57
2022/08/19 17:08:30;;;;;;;14.05;7.10;;;;;;;31.19;30.64;97075.69;10291375;28;20061;-56
2022/08/19 17:13:29;;;;;;;9.93;7.25;;;;;;;30.92;31.61;97077.31;10290140;28;20500;-56
2022/08/19 17:18:31;;;;;;;10.18;7.65;;;;;;;30.66;32.87;97089.66;10291496;28;20061;-56
2022/08/19 17:23:30;;;;;;;11.90;7.60;;;;;;;30.34;33.46;97090.75;10290995;28;20511;-56
2022/08/19 17:28:30;;;;;;;10.32;6.65;;;;;;;30.03;33.77;97098.09;10290394;28;20076;-56
2022/08/19 17:33:29;;;;;;;13.50;7.88;;;;;;;29.73;34.73;97099.84;10288415;28;20816;-57
2022/08/19 17:38:28;;;;;;;9.95;7.72;;;;;;;29.44;35.55;97100.59;10289431;28;20537;-56
2022/08/19 17:43:27;;;;;;;16.25;9.57;;;;;;;29.14;35.99;97101.44;10289268;28;20096;-56
2022/08/19 17:48:26;;;;;;;12.25;8.40;;;;;;;28.90;36.18;97115.09;10268827;28;20042;-56
2022/08/19 17:53:25;;;;;;;11.43;7.50;;;;;;;28.62;36.99;97120.09;10249510;28;20174;-56
2022/08/19 17:58:24;;;;;;;14.63;8.45;;;;;;;28.34;37.07;97128.72;10249472;28;20419;-56
2022/08/19 18:03:23;;;;;;;15.05;8.05;;;;;;;28.08;38.15;97129.06;10276124;28;20385;-56
2022/08/19 18:08:22;;;;;;;11.68;8.13;;;;;;;27.86;39.61;97137.91;10289381;28;20030;-56
2022/08/19 18:13:21;;;;;;;13.57;7.47;;;;;;;27.60;41.03;97145.34;10288965;28;20060;-56
2022/08/19 18:18:20;;;;;;;12.32;8.48;;;;;;;27.36;41.08;97146.31;10288500;28;20041;-56
2022/08/19 18:23:19;;;;;;;14.05;9.27;;;;;;;27.17;41.41;97148.72;10286875;28;20026;-57
2022/08/19 18:28:18;;;;;;;15.55;8.68;;;;;;;27.00;41.88;97150.00;10287781;28;20130;-56
2022/08/19 18:33:17;;;;;;;17.38;9.15;;;;;;;26.81;41.99;97152.38;10284380;28;20022;-56
2022/08/19 18:49:06;;;;;;;13.10;9.65;;;;;;;26.23;43.22;97162.91;10263353;28;20061;-55
2022/08/19 18:54:05;;;;;;;11.30;8.43;;;;;;;26.04;43.18;97164.28;10248185;28;20499;-56
2022/08/19 18:59:04;;;;;;;10.15;7.95;;;;;;;25.89;43.37;97166.22;10247824;28;20459;-56
2022/08/19 19:04:09;;;;;;;11.32;8.23;;;;;;;25.74;44.16;97173.50;10268570;28;20025;-57
2022/08/19 19:09:18;;;;;;;12.48;8.82;;;;;;;25.57;44.36;97173.84;10287091;28;20539;-57
2022/08/19 19:14:24;;;;;;;11.90;8.63;;;;;;;25.42;44.76;97178.41;10286256;28;20061;-57
2022/08/19 19:19:24;;;;;;;11.00;8.75;;;;;;;25.29;45.43;97188.19;10287962;28;20061;-56
2022/08/19 19:24:31;;;;;;;13.13;9.70;;;;;;;25.11;45.91;97187.69;10287386;28;20072;-56
2022/08/19 19:29:30;;;;;;;12.13;8.10;;;;;;;24.88;46.82;97194.56;10288341;28;20076;-56
2022/08/19 19:34:29;;;;;;;11.85;8.85;;;;;;;24.81;47.01;97196.75;10283896;28;20129;-56
2022/08/19 19:39:28;;;;;;;13.32;8.73;;;;;;;24.70;47.46;97204.56;10287321;28;20085;-56
2022/08/19 19:44:28;;;;;;;11.95;8.98;;;;;;;24.57;47.82;97211.66;10287640;28;20041;-56
2022/08/19 19:49:31;;;;;;;15.13;9.88;;;;;;;24.51;48.35;97220.00;10259244;28;20069;-56
2022/08/19 19:54:30;;;;;;;16.70;10.75;;;;;;;24.44;48.53;97223.06;10246153;28;20069;-56
2022/08/19 19:59:29;;;;;;;12.73;9.35;;;;;;;24.34;48.71;97221.97;10246899;28;20107;-57
2022/08/19 20:04:30;;;;;;;13.93;9.25;;;;;;;24.27;49.00;97228.63;10274531;28;20076;-56
2022/08/19 20:09:29;;;;;;;11.57;9.18;;;;;;;24.16;49.54;97225.78;10292546;28;20483;-56
2022/08/19 20:14:31;;;;;;;16.63;9.52;;;;;;;24.13;49.86;97234.78;10291341;28;20581;-56
2022/08/19 20:19:33;;;;;;;11.25;8.40;;;;;;;24.00;50.35;97247.94;10294182;28;20070;-56
2022/08/19 20:24:34;;;;;;;12.13;8.80;;;;;;;23.85;50.29;97246.28;10293673;28;20496;-56
2022/08/19 20:29:34;;;;;;;10.77;8.50;;;;;;;23.78;51.01;97258.22;10291645;28;20546;-56
2022/08/19 20:34:33;;;;;;;12.07;8.75;;;;;;;23.62;51.45;97259.16;10289906;28;20100;-56
2022/08/19 20:39:32;;;;;;;13.95;9.35;;;;;;;23.53;51.90;97272.13;10292118;28;20489;-56
2022/08/19 20:44:31;;;;;;;13.25;10.63;;;;;;;23.50;52.84;97267.03;10291821;28;20061;-56
2022/08/19 20:49:31;;;;;;;17.45;10.55;;;;;;;23.37;53.50;97265.09;10292569;28;20053;-56
2022/08/19 20:54:30;;;;;;;14.38;10.02;;;;;;;23.35;54.43;97269.63;10291357;28;20057;-56
2022/08/19 20:59:29;;;;;;;17.35;10.23;;;;;;;23.30;55.23;97282.25;10292778;28;20066;-57
2022/08/19 21:04:28;;;;;;;14.88;9.57;;;;;;;23.21;55.46;97283.69;10301753;28;20023;-56
2022/08/19 21:09:28;;;;;;;14.43;9.80;;;;;;;23.11;56.31;97277.22;10302864;28;20065;-56
2022/08/19 21:14:26;;;;;;;18.00;10.48;;;;;;;23.02;56.23;97278.63;10293379;28;20065;-56
2022/08/19 21:19:26;;;;;;;16.40;10.63;;;;;;;22.91;57.43;97278.41;10290693;28;20034;-56
2022/08/19 21:24:25;;;;;;;14.52;11.15;;;;;;;22.68;59.01;97276.22;10288112;28;20128;-56
2022/08/19 21:29:24;;;;;;;18.13;10.80;;;;;;;22.58;59.70;97266.16;10287445;28;20526;-56
2022/08/19 21:34:23;;;;;;;15.18;10.77;;;;;;;22.62;59.60;97285.34;10286361;28;20523;-56
2022/08/19 21:39:22;;;;;;;14.90;10.55;;;;;;;22.59;59.17;97285.53;10285820;28;20041;-56
2022/08/19 21:44:21;;;;;;;14.98;10.07;;;;;;;22.53;58.83;97277.91;10288010;28;20129;-56
2022/08/19 21:49:21;;;;;;;14.63;10.27;;;;;;;22.36;59.38;97284.16;10289997;28;20069;-56
2022/08/19 21:54:20;;;;;;;14.93;9.88;;;;;;;22.28;59.56;97287.25;10289149;28;20368;-56
2022/08/19 21:59:20;;;;;;;15.05;9.77;;;;;;;22.18;59.47;97279.00;10287203;28;20088;-56
2022/08/19 22:04:19;;;;;;;13.73;10.02;;;;;;;22.14;59.62;97273.94;10288561;28;20092;-56
2022/08/19 22:09:18;;;;;;;15.23;10.15;;;;;;;22.12;60.44;97276.66;10285461;28;20099;-56
2022/08/19 22:14:17;;;;;;;12.88;9.57;;;;;;;21.98;61.55;97279.19;10289221;28;20364;-56
2022/08/19 22:19:16;;;;;;;14.75;9.90;;;;;;;21.95;61.17;97276.72;10290019;28;20037;-56
2022/08/19 22:24:15;;;;;;;14.48;9.90;;;;;;;21.94;61.08;97283.81;10288928;28;20101;-56
2022/08/19 22:29:15;;;;;;;15.05;10.40;;;;;;;21.87;61.81;97274.47;10288685;28;20041;-56
2022/08/19 22:34:14;;;;;;;13.70;10.45;;;;;;;21.68;62.95;97279.06;10289381;28;20072;-56
2022/08/19 22:39:13;;;;;;;15.02;11.38;;;;;;;21.52;63.32;97274.59;10288741;28;20037;-56
2022/08/19 22:44:12;;;;;;;16.13;10.68;;;;;;;21.44;64.00;97257.47;10288669;28;20034;-56
2022/08/19 22:49:11;;;;;;;17.02;10.60;;;;;;;21.33;64.75;97244.81;10267074;28;20033;-56
2022/08/19 22:54:10;;;;;;;15.15;10.68;;;;;;;21.18;65.16;97238.53;10247975;28;20030;-56
2022/08/19 22:59:09;;;;;;;14.95;10.75;;;;;;;21.08;65.04;97217.06;10247835;28;20038;-56
2022/08/19 23:04:08;;;;;;;15.25;9.80;;;;;;;21.10;65.57;97217.84;10248228;28;20073;-56
2022/08/19 23:09:08;;;;;;;12.70;9.40;;;;;;;21.04;65.52;97220.78;10275863;28;20151;-56
2022/08/19 23:14:07;;;;;;;13.57;10.05;;;;;;;21.01;65.74;97220.94;10288312;28;20057;-56
2022/08/19 23:19:06;;;;;;;16.80;10.55;;;;;;;20.99;66.03;97220.16;10289074;28;20065;-56
2022/08/19 23:24:05;;;;;;;13.25;11.02;;;;;;;20.94;66.16;97216.91;10287415;28;20053;-56
2022/08/19 23:34:22;;;;;;;15.88;12.02;;;;;;;20.90;66.26;97205.66;10287899;28;20074;-56
2022/08/19 23:39:21;;;;;;;17.38;11.95;;;;;;;20.89;66.37;97208.34;10294242;28;20057;-56
2022/08/19 23:44:19;;;;;;;20.52;11.95;;;;;;;20.85;66.95;97204.19;10295797;28;20434;-56
2022/08/19 23:49:18;;;;;;;18.20;13.23;;;;;;;20.75;67.05;97208.22;10273841;28;20018;-56
2022/08/19 23:54:17;;;;;;;20.40;12.15;;;;;;;20.70;66.63;97211.09;10254628;28;20041;-56
2022/08/19 23:59:18;;;;;;;15.63;11.10;;;;;;;20.62;66.70;97211.47;10254377;28;20030;-56
